Aeroporto :
LOGIN :

Iscrizione | Disclaimer

   EN    FR    IT 

 










Sommario :    VFR   VFR Marginale   IFR   IFR Intensivo   IFR Molto Intensivo
Visibilità : 
Base nubi : 
>= 8 km
>= 3000ft
5 / 8 km
1000 / 3000 ft
1500m / 5 km
500 / 1000 ft
800 / 1500m
200 / 500 ft
< 800m
< 200 ft
Simboli :   Temporali  Nebbia  Neve Forte  Precipitazioni Forti  Vento > 20 kt
SIGMETs :   Varie  Temporali  Ghiacco  Turbolenza  Onda orograficha  Ceneri Vulcaniche






- Altitudine del aeroporto : 42 ft
- Codice IATA : KGD


UMKK - Khrabrava - Kaliningrad

ULTIMO METAR :
  • 270300Z VRB01MPS 9000 SCT004 07/06 Q1031 R24/95D NOSIG RMK QBB120 OBST OBSC QFE772/1029

METARs OBSOLETI :
  • 270200Z 27003MPS 9000 BKN002 08/07 Q1031 R24/95D NOSIG RMK QBB070 OBST OBSC QFE772/1030
  • 270100Z 29005MPS 9999 BKN003 08/08 Q1031 R24/CLRD95 NOSIG RMK QBB090 OBST OBSC QFE772/1030

TAF TAF UMKK
Valido dal 27 a 03 ore il 28 a 03 ore UTC


270154Z 2703/2803 30005G10MPS 4000 BR BKN003
TEMPO 2703/2708 1000 BR BKN002
FM270800 28005G10MPS 9999 SCT011
TEMPO 2708/2712 BKN004
BECMG 2712/2714 30003G08MPS
BECMG 2716/2718 VRB01MPS



MetMap, La meteo Aeronautica in un colpo d'occhio ! - Copyright ORBIFLY Dicembre 2007 - Disclaimer

ORBIFLY MET'MAP TEAM :

Programmazione e sviluppo : Alexandra Zaïnal
Concezione : Baudouin d'Aumeries
Aiuto per la programmazione : Marc-Olivier Méhu
Supporto tecnico e logistico : Manuel Goepfert
Aiuto per la traduzione : Arnaldo La Scala

Contatto : metmap@orbifly.com




FONTI E CREDITI :

   NOAA